createdAt,value
2023-04-18T00:00:15.161Z,1.70
2023-04-18T00:02:44.544Z,1.48
2023-04-18T00:05:13.006Z,2.03
2023-04-18T00:07:40.480Z,1.45
2023-04-18T00:10:08.478Z,2.20
2023-04-18T00:12:36.497Z,2.10
2023-04-18T00:15:05.150Z,2.25
2023-04-18T00:17:35.618Z,2.30
2023-04-18T00:20:07.023Z,2.28
2023-04-18T00:22:35.102Z,1.95
2023-04-18T00:25:02.998Z,2.17
2023-04-18T00:27:31.768Z,2.80
2023-04-18T00:29:59.601Z,2.17
2023-04-18T00:32:27.159Z,2.75
2023-04-18T00:34:54.511Z,2.53
2023-04-18T00:37:21.828Z,2.28
2023-04-18T00:39:53.866Z,2.38
2023-04-18T00:42:22.319Z,8.95
2023-04-18T00:44:49.758Z,9.15
2023-04-18T00:47:17.720Z,4.30
2023-04-18T00:49:46.085Z,2.90
2023-04-18T00:52:14.110Z,2.50
2023-04-18T00:54:41.634Z,2.10
2023-04-18T00:57:09.613Z,2.40
2023-04-18T00:59:37.043Z,2.55
2023-04-18T01:02:04.684Z,2.40
2023-04-18T01:04:32.694Z,2.25
2023-04-18T01:07:02.476Z,2.50
2023-04-18T01:09:30.878Z,2.53
2023-04-18T01:11:58.229Z,2.30
2023-04-18T01:14:25.687Z,2.88
2023-04-18T01:16:53.491Z,2.30
2023-04-18T01:19:21.655Z,2.50
2023-04-18T01:21:49.236Z,2.40
2023-04-18T01:24:18.570Z,2.08
2023-04-18T01:26:49.391Z,1.85
2023-04-18T01:29:16.892Z,2.00
2023-04-18T01:31:44.402Z,1.83
2023-04-18T01:34:12.250Z,2.00
2023-04-18T01:36:41.538Z,1.58
2023-04-18T01:39:13.356Z,1.67
2023-04-18T01:41:42.279Z,1.63
2023-04-18T01:44:10.680Z,1.17
2023-04-18T01:46:38.865Z,1.50
2023-04-18T01:49:06.681Z,1.50
2023-04-18T01:51:34.182Z,1.55
2023-04-18T01:54:01.613Z,1.30
2023-04-18T01:56:29.125Z,1.30
2023-04-18T01:58:58.697Z,1.58
2023-04-18T02:01:26.250Z,1.27
2023-04-18T02:03:53.837Z,1.30
2023-04-18T02:06:21.791Z,1.10
2023-04-18T02:08:49.480Z,1.20
2023-04-18T02:11:17.023Z,1.40
2023-04-18T02:13:44.852Z,1.20
2023-04-18T02:16:13.707Z,1.40
2023-04-18T02:18:44.267Z,1.02
2023-04-18T02:21:11.981Z,1.08
2023-04-18T02:23:39.407Z,1.15
2023-04-18T02:26:06.956Z,1.60
2023-04-18T02:28:34.541Z,1.10
2023-04-18T02:31:05.061Z,0.90
2023-04-18T02:33:35.298Z,1.00
2023-04-18T02:36:03.299Z,1.10
2023-04-18T02:38:31.933Z,1.00
2023-04-18T02:41:00.499Z,0.70
2023-04-18T02:43:27.822Z,0.70
2023-04-18T02:45:56.075Z,1.00
2023-04-18T02:48:24.087Z,0.80
2023-04-18T02:50:51.742Z,0.70
2023-04-18T02:53:19.544Z,0.77
2023-04-18T02:55:53.449Z,0.80
2023-04-18T02:58:27.454Z,0.68
2023-04-18T03:01:33.529Z,0.68
2023-04-18T03:04:08.266Z,0.73
2023-04-18T03:06:43.158Z,0.82
2023-04-18T03:09:10.984Z,0.70
2023-04-18T03:11:44.411Z,0.73
2023-04-18T03:14:12.729Z,0.73
2023-04-18T03:16:47.445Z,0.60
2023-04-18T03:19:19.089Z,0.50
2023-04-18T03:21:46.593Z,0.70
2023-04-18T03:24:14.290Z,0.70
2023-04-18T03:26:46.067Z,0.68
2023-04-18T03:29:13.821Z,0.55
2023-04-18T03:31:44.203Z,0.80
2023-04-18T03:34:12.093Z,0.73
2023-04-18T03:36:40.184Z,0.90
2023-04-18T03:39:07.590Z,0.60
2023-04-18T03:41:35.429Z,0.77
2023-04-18T03:44:03.959Z,0.60
2023-04-18T03:46:35.329Z,0.60
2023-04-18T03:49:03.505Z,0.68
2023-04-18T03:51:43.385Z,0.52
2023-04-18T03:54:10.899Z,1.10
2023-04-18T03:56:38.605Z,0.70
2023-04-18T03:59:06.939Z,1.38
2023-04-18T04:01:34.555Z,0.70
2023-04-18T04:04:03.558Z,0.65
2023-04-18T04:06:32.221Z,0.75
2023-04-18T04:09:01.608Z,0.70
2023-04-18T04:11:30.692Z,0.70
2023-04-18T04:13:58.710Z,0.70
2023-04-18T04:16:32.069Z,0.88
2023-04-18T04:19:00.255Z,0.57
2023-04-18T04:21:34.879Z,0.68
2023-04-18T04:24:03.091Z,0.52
2023-04-18T04:26:35.859Z,1.10
2023-04-18T04:29:13.892Z,0.70
2023-04-18T04:31:43.808Z,0.68
2023-04-18T04:34:11.113Z,0.75
2023-04-18T04:36:39.814Z,1.05
2023-04-18T04:39:08.731Z,0.80
2023-04-18T04:42:07.667Z,0.80
2023-04-18T04:44:44.306Z,0.70
2023-04-18T04:47:11.844Z,0.85
2023-04-18T04:49:40.165Z,0.63
2023-04-18T04:52:07.473Z,0.80
2023-04-18T04:54:35.077Z,0.35
2023-04-18T04:57:04.419Z,0.82
2023-04-18T04:59:31.680Z,0.70
2023-04-18T05:01:59.123Z,0.95
2023-04-18T05:04:26.579Z,1.00
2023-04-18T05:06:54.342Z,0.85
2023-04-18T05:09:21.835Z,0.75
2023-04-18T05:11:52.176Z,1.10
2023-04-18T05:14:20.797Z,0.90
2023-04-18T05:16:48.060Z,0.60
2023-04-18T05:19:15.445Z,1.00
2023-04-18T05:21:42.737Z,0.90
2023-04-18T05:24:10.310Z,1.23
2023-04-18T05:26:37.839Z,0.70
2023-04-18T05:29:05.057Z,0.90
2023-04-18T05:31:32.925Z,0.95
2023-04-18T05:34:00.335Z,1.35
2023-04-18T05:36:27.865Z,1.02
2023-04-18T05:38:55.292Z,1.15
2023-04-18T05:41:23.154Z,1.17
2023-04-18T05:44:01.772Z,1.25
2023-04-18T05:46:33.552Z,1.00
2023-04-18T05:49:01.557Z,1.40
2023-04-18T05:51:29.262Z,1.25
2023-04-18T05:53:56.506Z,1.52
2023-04-18T05:56:23.984Z,1.30
2023-04-18T05:58:51.524Z,1.10
2023-04-18T06:01:18.867Z,1.30
2023-04-18T06:03:46.364Z,1.55
2023-04-18T06:06:14.046Z,1.30
2023-04-18T06:08:41.609Z,1.40
2023-04-18T06:11:09.118Z,1.58
2023-04-18T06:13:37.615Z,1.42
2023-04-18T06:16:05.428Z,1.45
2023-04-18T06:18:33.103Z,1.70
2023-04-18T06:21:00.572Z,1.63
2023-04-18T06:23:27.833Z,2.30
2023-04-18T06:25:55.816Z,1.70
2023-04-18T06:28:23.241Z,1.50
2023-04-18T06:30:50.592Z,1.70
2023-04-18T06:33:18.006Z,1.80
2023-04-18T06:35:45.493Z,2.00
2023-04-18T06:38:12.801Z,3.10
2023-04-18T06:40:40.114Z,1.88
2023-04-18T06:43:07.538Z,1.70
2023-04-18T06:45:35.811Z,1.90
2023-04-18T06:48:04.393Z,2.15
2023-04-18T06:50:31.893Z,1.63
2023-04-18T06:52:59.213Z,1.30
2023-04-18T06:55:26.628Z,2.10
2023-04-18T06:57:54.132Z,1.80
2023-04-18T07:00:21.541Z,1.35
2023-04-18T07:02:49.051Z,1.60
2023-04-18T07:05:16.446Z,1.55
2023-04-18T07:07:43.765Z,1.90
2023-04-18T07:10:11.913Z,1.50
2023-04-18T07:12:39.233Z,1.85
2023-04-18T07:15:07.021Z,2.22
2023-04-18T07:17:34.613Z,2.38
2023-04-18T07:20:01.967Z,1.75
2023-04-18T07:22:31.169Z,1.90
2023-04-18T07:24:58.420Z,1.60
2023-04-18T07:27:26.063Z,1.73
2023-04-18T07:29:53.397Z,1.80
2023-04-18T07:32:20.614Z,1.70
2023-04-18T07:34:48.509Z,1.75
2023-04-18T07:37:17.579Z,1.45
2023-04-18T07:39:44.864Z,2.72
2023-04-18T07:42:12.157Z,2.45
2023-04-18T07:44:39.691Z,2.33
2023-04-18T07:47:11.613Z,2.30
2023-04-18T07:49:39.473Z,2.67
2023-04-18T07:52:07.632Z,2.22
2023-04-18T07:54:35.502Z,2.55
2023-04-18T07:57:02.971Z,2.78
2023-04-18T07:59:32.264Z,2.22
2023-04-18T08:01:59.554Z,2.47
2023-04-18T08:04:29.775Z,2.08
2023-04-18T08:06:57.466Z,2.30
2023-04-18T08:09:25.301Z,2.25
2023-04-18T08:11:55.029Z,1.98
2023-04-18T08:14:22.390Z,2.05
2023-04-18T08:16:49.990Z,2.22
2023-04-18T08:19:17.536Z,2.30
2023-04-18T08:21:44.955Z,2.90
2023-04-18T08:24:12.215Z,2.72
2023-04-18T08:26:39.543Z,2.90
2023-04-18T08:29:07.544Z,2.90
2023-04-18T08:31:34.982Z,2.63
2023-04-18T08:34:04.506Z,1.90
2023-04-18T08:36:32.367Z,1.88
2023-04-18T08:38:59.655Z,1.70
2023-04-18T08:41:28.755Z,1.77
2023-04-18T08:43:57.164Z,2.13
2023-04-18T08:46:24.962Z,2.30
2023-04-18T08:48:52.660Z,2.08
2023-04-18T08:51:19.842Z,2.00
2023-04-18T08:53:48.378Z,2.00
2023-04-18T08:56:16.381Z,1.88
2023-04-18T08:58:45.106Z,2.58
2023-04-18T09:01:13.556Z,1.65
2023-04-18T09:03:43.218Z,1.92
2023-04-18T09:06:16.423Z,2.58
2023-04-18T09:08:54.819Z,2.70
2023-04-18T09:11:26.151Z,2.50
2023-04-18T09:13:55.993Z,3.00
2023-04-18T09:16:23.719Z,3.80
2023-04-18T09:19:11.229Z,3.30
2023-04-18T09:21:40.874Z,2.85
2023-04-18T09:24:24.829Z,2.67
2023-04-18T09:26:56.072Z,1.90
2023-04-18T09:29:42.697Z,2.47
2023-04-18T09:32:10.492Z,2.00
2023-04-18T09:34:42.964Z,1.90
2023-04-18T09:37:12.360Z,11.65
2023-04-18T09:39:43.225Z,3.08
2023-04-18T09:42:11.511Z,1.90
2023-04-18T09:44:57.552Z,2.00
2023-04-18T09:47:24.904Z,1.92
2023-04-18T09:49:52.856Z,1.80
2023-04-18T09:52:21.278Z,1.33
2023-04-18T09:54:55.158Z,1.40
2023-04-18T09:57:26.566Z,1.73
2023-04-18T10:00:03.872Z,1.33
2023-04-18T10:02:41.154Z,1.83
2023-04-18T10:05:09.150Z,1.58
2023-04-18T10:07:37.035Z,1.42
2023-04-18T10:10:04.806Z,1.75
2023-04-18T10:12:33.286Z,1.80
2023-04-18T10:15:01.347Z,1.83
2023-04-18T10:17:29.610Z,1.75
2023-04-18T10:20:08.477Z,1.60
2023-04-18T10:22:35.962Z,1.30
2023-04-18T10:25:03.644Z,1.30
2023-04-18T10:27:49.346Z,1.60
2023-04-18T10:30:18.139Z,2.05
2023-04-18T10:32:49.015Z,2.10
2023-04-18T10:35:16.283Z,2.25
2023-04-18T10:37:51.122Z,2.78
2023-04-18T10:40:34.870Z,4.85
2023-04-18T10:43:02.506Z,2.40
2023-04-18T10:45:36.362Z,2.10
2023-04-18T10:48:24.157Z,2.08
2023-04-18T10:51:17.722Z,2.75
2023-04-18T10:53:57.707Z,2.17
2023-04-18T10:56:26.224Z,2.00
2023-04-18T10:58:54.056Z,1.95
2023-04-18T11:01:33.146Z,1.60
2023-04-18T11:04:01.383Z,1.33
2023-04-18T11:06:30.528Z,1.88
2023-04-18T11:09:14.164Z,1.77
2023-04-18T11:11:41.864Z,1.60
2023-04-18T11:14:09.247Z,1.60
2023-04-18T11:16:36.890Z,3.95
2023-04-18T11:19:26.598Z,1.90
2023-04-18T11:22:01.174Z,3.35
2023-04-18T11:24:29.773Z,4.63
2023-04-18T11:26:57.045Z,2.05
2023-04-18T11:29:24.438Z,2.13
2023-04-18T11:31:56.693Z,2.10
2023-04-18T11:34:31.796Z,2.38
2023-04-18T11:36:59.224Z,2.72
2023-04-18T11:39:26.536Z,2.10
2023-04-18T11:41:56.477Z,1.95
2023-04-18T11:44:25.184Z,2.33
2023-04-18T11:46:55.494Z,2.20
2023-04-18T11:49:30.427Z,2.45
2023-04-18T11:54:42.601Z,2.25
2023-04-18T11:57:26.740Z,2.40
2023-04-18T11:59:56.793Z,1.80
2023-04-18T12:02:40.221Z,2.40
2023-04-18T12:05:08.236Z,2.50
2023-04-18T12:07:39.512Z,7.63
2023-04-18T12:10:23.530Z,6.05
2023-04-18T12:12:52.916Z,3.92
2023-04-18T12:15:21.851Z,2.20
2023-04-18T12:17:51.943Z,2.92
2023-04-18T12:20:20.204Z,2.60
2023-04-18T12:22:49.686Z,2.08
2023-04-18T12:25:27.427Z,2.40
2023-04-18T12:28:02.344Z,2.72
2023-04-18T12:30:32.179Z,2.58
2023-04-18T12:33:01.827Z,2.40
2023-04-18T12:35:31.608Z,2.53
2023-04-18T12:38:00.661Z,2.90
2023-04-18T12:40:28.953Z,3.20
2023-04-18T12:42:56.794Z,3.28
2023-04-18T12:45:24.665Z,2.88
2023-04-18T12:47:53.019Z,3.15
2023-04-18T12:50:24.981Z,3.20
2023-04-18T12:52:55.144Z,3.20
2023-04-18T12:55:25.948Z,2.80
2023-04-18T12:57:58.067Z,2.83
2023-04-18T13:00:31.268Z,3.15
2023-04-18T13:02:59.447Z,3.03
2023-04-18T13:05:31.598Z,3.05
2023-04-18T13:08:12.794Z,2.83
2023-04-18T13:10:44.418Z,2.17
2023-04-18T13:13:11.889Z,2.90
2023-04-18T13:15:39.278Z,3.35
2023-04-18T13:18:06.984Z,2.90
2023-04-18T13:20:35.066Z,2.65
2023-04-18T13:23:03.295Z,2.50
2023-04-18T13:25:30.830Z,2.78
2023-04-18T13:27:58.742Z,2.58
2023-04-18T13:30:26.219Z,2.13
2023-04-18T13:32:55.064Z,2.20
2023-04-18T13:35:22.442Z,2.20
2023-04-18T13:37:49.898Z,2.40
2023-04-18T13:40:17.253Z,2.30
2023-04-18T13:42:45.808Z,2.80
2023-04-18T13:45:13.948Z,2.28
2023-04-18T13:47:41.299Z,2.10
2023-04-18T13:50:09.373Z,2.30
2023-04-18T13:52:36.628Z,2.80
2023-04-18T13:55:04.213Z,2.67
2023-04-18T13:57:33.636Z,2.42
2023-04-18T14:00:01.337Z,2.50
2023-04-18T14:02:41.752Z,3.03
2023-04-18T14:05:09.562Z,2.17
2023-04-18T14:07:38.453Z,3.67
2023-04-18T14:10:06.817Z,2.45
2023-04-18T14:12:34.951Z,3.08
2023-04-18T14:15:02.368Z,3.00
2023-04-18T14:17:32.770Z,2.72
2023-04-18T14:20:01.565Z,2.95
2023-04-18T14:22:31.202Z,3.25
2023-04-18T14:24:58.959Z,3.60
2023-04-18T14:27:26.610Z,3.45
2023-04-18T14:29:54.553Z,3.20
2023-04-18T14:32:21.925Z,3.65
2023-04-18T14:34:49.325Z,3.22
2023-04-18T14:37:17.780Z,3.63
2023-04-18T14:39:45.262Z,3.25
2023-04-18T14:42:12.658Z,3.53
2023-04-18T14:44:40.193Z,3.78
2023-04-18T14:47:07.582Z,4.00
2023-04-18T14:49:35.039Z,3.45
2023-04-18T14:52:02.395Z,3.20
2023-04-18T14:54:31.031Z,3.47
2023-04-18T14:56:59.921Z,3.60
2023-04-18T14:59:28.886Z,3.42
2023-04-18T15:01:56.466Z,3.50
2023-04-18T15:04:24.336Z,4.05
2023-04-18T15:06:51.822Z,4.00
2023-04-18T15:09:19.214Z,3.28
2023-04-18T15:11:46.587Z,3.63
2023-04-18T15:14:14.181Z,4.10
2023-04-18T15:16:41.732Z,3.40
2023-04-18T15:19:09.034Z,2.97
2023-04-18T15:21:36.281Z,3.38
2023-04-18T15:24:03.802Z,3.30
2023-04-18T15:26:33.113Z,3.78
2023-04-18T15:29:04.291Z,3.00
2023-04-18T15:31:32.631Z,3.10
2023-04-18T15:34:00.884Z,3.00
2023-04-18T15:36:28.927Z,3.45
2023-04-18T15:38:56.481Z,3.40
2023-04-18T15:41:24.096Z,2.92
2023-04-18T15:43:53.174Z,3.92
2023-04-18T15:46:20.988Z,3.40
2023-04-18T15:48:48.453Z,3.15
2023-04-18T15:51:15.836Z,3.63
2023-04-18T15:53:43.185Z,4.07
2023-04-18T15:56:10.505Z,3.95
2023-04-18T15:58:38.196Z,4.07
2023-04-18T16:01:07.276Z,4.00
2023-04-18T16:03:36.444Z,3.22
2023-04-18T16:06:04.729Z,8.50
2023-04-18T16:08:33.473Z,5.53
2023-04-18T16:11:01.178Z,4.82
2023-04-18T16:13:28.661Z,3.75
2023-04-18T16:15:56.860Z,3.80
2023-04-18T16:18:24.709Z,3.95
2023-04-18T16:20:52.236Z,4.50
2023-04-18T16:23:20.660Z,3.90
2023-04-18T16:25:48.210Z,4.00
2023-04-18T16:28:16.390Z,3.95
2023-04-18T16:30:45.733Z,3.75
2023-04-18T16:33:13.362Z,4.20
2023-04-18T16:35:42.269Z,3.63
2023-04-18T16:38:09.589Z,4.05
2023-04-18T16:40:38.721Z,4.32
2023-04-18T16:43:06.390Z,4.75
2023-04-18T16:45:33.937Z,4.80
2023-04-18T16:48:01.526Z,5.18
2023-04-18T16:50:29.458Z,5.95
2023-04-18T16:52:56.741Z,6.20
2023-04-18T16:55:24.398Z,6.13
2023-04-18T16:57:51.750Z,6.90
2023-04-18T17:00:19.211Z,7.20
2023-04-18T17:02:47.463Z,6.68
2023-04-18T17:05:14.934Z,6.55
2023-04-18T17:07:42.233Z,6.82
2023-04-18T17:10:10.298Z,6.13
2023-04-18T17:12:37.724Z,7.35
2023-04-18T17:15:05.460Z,7.40
2023-04-18T17:17:33.079Z,7.05
2023-04-18T17:20:01.340Z,6.53
2023-04-18T17:22:29.635Z,5.90
2023-04-18T17:24:56.882Z,7.40
2023-04-18T17:27:24.320Z,6.40
2023-04-18T17:29:51.824Z,6.85
2023-04-18T17:32:19.095Z,6.38
2023-04-18T17:34:46.456Z,5.53
2023-04-18T17:37:14.949Z,5.30
2023-04-18T17:39:42.345Z,4.63
2023-04-18T17:42:11.501Z,4.47
2023-04-18T17:44:39.859Z,4.20
2023-04-18T17:47:07.367Z,4.57
2023-04-18T17:49:35.137Z,4.20
2023-04-18T17:52:03.085Z,4.13
2023-04-18T17:54:30.472Z,4.05
2023-04-18T17:56:57.972Z,4.93
2023-04-18T17:59:25.738Z,5.38
2023-04-18T18:01:53.071Z,5.50
2023-04-18T18:04:22.960Z,5.50
2023-04-18T18:06:58.700Z,5.63
2023-04-18T18:09:26.107Z,5.22
2023-04-18T18:11:55.815Z,4.82
2023-04-18T18:14:23.749Z,4.78
2023-04-18T18:16:51.308Z,4.88
2023-04-18T18:19:18.968Z,5.35
2023-04-18T18:21:47.409Z,4.80
2023-04-18T18:24:14.874Z,5.10
2023-04-18T18:26:42.450Z,5.13
2023-04-18T18:29:09.840Z,4.97
2023-04-18T18:31:38.525Z,5.25
2023-04-18T18:34:06.099Z,6.13
2023-04-18T18:36:33.429Z,4.53
2023-04-18T18:39:01.028Z,5.72
2023-04-18T18:41:31.311Z,5.25
2023-04-18T18:43:58.708Z,5.35
2023-04-18T18:46:27.277Z,4.63
2023-04-18T18:48:54.632Z,4.75
2023-04-18T18:51:23.809Z,4.85
2023-04-18T18:53:51.275Z,5.60
2023-04-18T18:56:18.585Z,5.28
2023-04-18T18:58:45.888Z,5.95
2023-04-18T19:01:13.285Z,6.00
2023-04-18T19:03:40.773Z,9.82
2023-04-18T19:06:08.790Z,9.45
2023-04-18T19:08:36.253Z,5.90
2023-04-18T19:11:04.420Z,5.97
2023-04-18T19:13:31.927Z,5.85
2023-04-18T19:15:59.296Z,5.28
2023-04-18T19:18:26.756Z,5.70
2023-04-18T19:20:54.235Z,5.25
2023-04-18T19:23:23.802Z,5.35
2023-04-18T19:25:51.905Z,5.80
2023-04-18T19:28:19.378Z,5.15
2023-04-18T19:30:46.709Z,5.57
2023-04-18T19:33:14.321Z,5.13
2023-04-18T19:35:43.081Z,5.50
2023-04-18T19:38:10.448Z,5.35
2023-04-18T19:40:37.780Z,5.40
2023-04-18T19:43:05.085Z,4.82
2023-04-18T19:45:33.744Z,5.60
2023-04-18T19:48:02.731Z,5.50
2023-04-18T19:50:30.060Z,4.68
2023-04-18T19:52:57.376Z,4.95
2023-04-18T19:55:24.777Z,5.95
2023-04-18T19:57:56.969Z,5.93
2023-04-18T20:00:24.407Z,7.07
2023-04-18T20:02:52.477Z,8.75
2023-04-18T20:05:21.114Z,6.38
2023-04-18T20:07:48.579Z,6.47
2023-04-18T20:10:15.969Z,6.15
2023-04-18T20:12:43.192Z,5.78
2023-04-18T20:15:11.008Z,5.78
2023-04-18T20:17:38.685Z,7.18
2023-04-18T20:20:24.953Z,6.47
2023-04-18T20:22:52.841Z,6.30
2023-04-18T20:25:20.226Z,5.95
2023-04-18T20:27:48.301Z,5.05
2023-04-18T20:30:16.116Z,5.35
2023-04-18T20:32:43.535Z,5.22
2023-04-18T20:35:13.113Z,7.97
2023-04-18T20:37:41.490Z,9.73
2023-04-18T20:40:10.879Z,14.70
2023-04-18T20:42:39.040Z,15.65
2023-04-18T20:45:11.092Z,16.85
2023-04-18T20:47:41.458Z,15.13
2023-04-18T20:50:09.911Z,13.32
2023-04-18T20:52:37.191Z,13.13
2023-04-18T20:55:04.697Z,12.35
2023-04-18T20:57:32.212Z,12.45
2023-04-18T20:59:59.741Z,13.85
2023-04-18T21:02:27.235Z,13.60
2023-04-18T21:04:54.858Z,14.95
2023-04-18T21:07:22.183Z,14.23
2023-04-18T21:09:49.829Z,14.55
2023-04-18T21:12:17.476Z,13.65
2023-04-18T21:14:44.884Z,13.60
2023-04-18T21:17:17.106Z,13.00
2023-04-18T21:19:50.891Z,13.23
2023-04-18T21:22:19.485Z,12.35
2023-04-18T21:24:47.027Z,12.52
2023-04-18T21:27:15.951Z,12.23
2023-04-18T21:29:43.294Z,12.90
2023-04-18T21:32:10.703Z,12.82
2023-04-18T21:34:38.216Z,13.05
2023-04-18T21:37:05.648Z,11.80
2023-04-18T21:39:33.012Z,12.07
2023-04-18T21:42:01.897Z,12.02
2023-04-18T21:44:29.294Z,11.88
2023-04-18T21:46:57.285Z,12.93
2023-04-18T21:49:24.633Z,12.07
2023-04-18T21:51:51.947Z,12.68
2023-04-18T21:54:19.244Z,13.65
2023-04-18T21:56:46.544Z,13.52
2023-04-18T21:59:13.967Z,12.68
2023-04-18T22:01:41.258Z,13.95
2023-04-18T22:04:09.138Z,14.38
2023-04-18T22:06:36.575Z,13.73
2023-04-18T22:09:07.067Z,14.82
2023-04-18T22:11:34.211Z,14.63
2023-04-18T22:14:01.601Z,15.25
2023-04-18T22:16:29.233Z,14.45
2023-04-18T22:18:56.715Z,15.10
2023-04-18T22:21:24.195Z,15.63
2023-04-18T22:23:51.894Z,14.45
2023-04-18T22:26:19.346Z,14.88
2023-04-18T22:28:47.077Z,15.05
2023-04-18T22:31:14.395Z,15.57
2023-04-18T22:33:41.661Z,16.55
2023-04-18T22:36:08.975Z,17.10
2023-04-18T22:38:36.234Z,19.25
2023-04-18T22:41:03.464Z,16.30
2023-04-18T22:43:30.842Z,16.40
2023-04-18T22:45:58.161Z,14.88
2023-04-18T22:48:25.664Z,15.95
2023-04-18T22:50:52.814Z,16.92
2023-04-18T22:53:20.058Z,16.58
2023-04-18T22:55:47.303Z,17.60
2023-04-18T22:58:14.618Z,16.88
2023-04-18T23:00:42.152Z,17.02
2023-04-18T23:03:09.475Z,16.90
2023-04-18T23:05:36.773Z,15.38
2023-04-18T23:08:04.633Z,15.25
2023-04-18T23:10:31.877Z,15.73
2023-04-18T23:12:59.273Z,15.75
2023-04-18T23:15:27.091Z,15.23
2023-04-18T23:17:54.590Z,15.43
2023-04-18T23:20:22.272Z,14.98
2023-04-18T23:22:51.881Z,15.90
2023-04-18T23:25:19.944Z,13.73
2023-04-18T23:27:49.134Z,14.70
2023-04-18T23:30:17.424Z,14.20
2023-04-18T23:32:44.934Z,15.48
2023-04-18T23:35:12.347Z,15.70
2023-04-18T23:37:39.705Z,14.40
2023-04-18T23:40:08.005Z,15.80
2023-04-18T23:42:36.353Z,13.98
2023-04-18T23:45:04.326Z,13.80
2023-04-18T23:47:34.905Z,14.27
2023-04-18T23:50:02.519Z,13.32
2023-04-18T23:52:32.683Z,13.15
2023-04-18T23:55:03.154Z,12.43
2023-04-18T23:57:33.698Z,11.85
